sensor_id;sensor_type;location;lat;lon;timestamp;temperature;humidity
10826;DHT22;5466;55.898;14.094;2024-03-23T00:55:24;4.50;99.90
10826;DHT22;5466;55.898;14.094;2024-03-23T00:57:25;4.40;99.90
10826;DHT22;5466;55.898;14.094;2024-03-23T00:59:26;4.40;99.90
10826;DHT22;5466;55.898;14.094;2024-03-23T01:01:29;4.30;99.90
10826;DHT22;5466;55.898;14.094;2024-03-23T01:03:30;4.30;99.90
10826;DHT22;5466;55.898;14.094;2024-03-23T01:05:30;4.30;99.90
10826;DHT22;5466;55.898;14.094;2024-03-23T01:07:31;4.20;99.90
10826;DHT22;5466;55.898;14.094;2024-03-23T01:09:31;4.20;99.90
10826;DHT22;5466;55.898;14.094;2024-03-23T01:11:32;4.20;99.90
10826;DHT22;5466;55.898;14.094;2024-03-23T01:13:33;4.10;99.90
10826;DHT22;5466;55.898;14.094;2024-03-23T01:15:33;4.10;99.90
10826;DHT22;5466;55.898;14.094;2024-03-23T01:17:34;4.10;99.90
10826;DHT22;5466;55.898;14.094;2024-03-23T01:19:34;4.00;99.90
10826;DHT22;5466;55.898;14.094;2024-03-23T01:21:35;4.00;99.90
10826;DHT22;5466;55.898;14.094;2024-03-23T01:23:35;3.90;99.90
10826;DHT22;5466;55.898;14.094;2024-03-23T01:25:36;3.90;99.90
10826;DHT22;5466;55.898;14.094;2024-03-23T01:27:37;3.80;99.90
10826;DHT22;5466;55.898;14.094;2024-03-23T01:29:37;3.80;99.90
10826;DHT22;5466;55.898;14.094;2024-03-23T01:31:39;3.70;99.90
10826;DHT22;5466;55.898;14.094;2024-03-23T01:33:39;3.70;99.90
10826;DHT22;5466;55.898;14.094;2024-03-23T01:35:40;3.70;99.90
10826;DHT22;5466;55.898;14.094;2024-03-23T01:37:41;3.80;99.90
10826;DHT22;5466;55.898;14.094;2024-03-23T01:39:42;3.80;99.90
10826;DHT22;5466;55.898;14.094;2024-03-23T01:41:42;3.90;99.90
10826;DHT22;5466;55.898;14.094;2024-03-23T01:43:43;3.80;99.90
10826;DHT22;5466;55.898;14.094;2024-03-23T01:45:44;3.80;99.90
10826;DHT22;5466;55.898;14.094;2024-03-23T01:47:44;3.80;99.90
10826;DHT22;5466;55.898;14.094;2024-03-23T01:49:45;3.80;99.90
10826;DHT22;5466;55.898;14.094;2024-03-23T01:51:46;3.80;99.90
10826;DHT22;5466;55.898;14.094;2024-03-23T01:53:46;3.70;99.90
10826;DHT22;5466;55.898;14.094;2024-03-23T01:55:48;3.60;99.90
10826;DHT22;5466;55.898;14.094;2024-03-23T01:57:48;3.70;99.90
10826;DHT22;5466;55.898;14.094;2024-03-23T01:59:49;3.50;99.90
10826;DHT22;5466;55.898;14.094;2024-03-23T02:01:51;3.60;99.90
10826;DHT22;5466;55.898;14.094;2024-03-23T02:03:51;3.50;99.90
10826;DHT22;5466;55.898;14.094;2024-03-23T02:05:53;3.50;99.90
10826;DHT22;5466;55.898;14.094;2024-03-23T02:07:54;3.40;99.90
10826;DHT22;5466;55.898;14.094;2024-03-23T02:09:55;3.40;99.90
10826;DHT22;5466;55.898;14.094;2024-03-23T02:11:55;3.40;99.90
10826;DHT22;5466;55.898;14.094;2024-03-23T02:13:56;3.40;99.90
10826;DHT22;5466;55.898;14.094;2024-03-23T02:15:56;3.40;99.90
10826;DHT22;5466;55.898;14.094;2024-03-23T02:17:57;3.30;99.90
10826;DHT22;5466;55.898;14.094;2024-03-23T02:19:57;3.30;99.90
10826;DHT22;5466;55.898;14.094;2024-03-23T02:21:58;3.40;99.90
10826;DHT22;5466;55.898;14.094;2024-03-23T02:23:59;3.40;99.90
10826;DHT22;5466;55.898;14.094;2024-03-23T02:26:00;3.40;99.90
10826;DHT22;5466;55.898;14.094;2024-03-23T02:28:01;3.50;99.90
10826;DHT22;5466;55.898;14.094;2024-03-23T02:30:01;3.50;99.90
10826;DHT22;5466;55.898;14.094;2024-03-23T02:32:02;3.70;99.90
10826;DHT22;5466;55.898;14.094;2024-03-23T02:34:03;3.60;99.90
10826;DHT22;5466;55.898;14.094;2024-03-23T02:36:04;3.50;99.90
10826;DHT22;5466;55.898;14.094;2024-03-23T02:38:04;3.50;99.90
10826;DHT22;5466;55.898;14.094;2024-03-23T02:40:05;3.50;99.90
10826;DHT22;5466;55.898;14.094;2024-03-23T02:42:06;3.40;99.90
10826;DHT22;5466;55.898;14.094;2024-03-23T02:44:07;3.40;99.90
10826;DHT22;5466;55.898;14.094;2024-03-23T02:46:08;3.40;99.90
10826;DHT22;5466;55.898;14.094;2024-03-23T02:48:08;3.40;99.90
10826;DHT22;5466;55.898;14.094;2024-03-23T02:50:09;3.40;99.90
10826;DHT22;5466;55.898;14.094;2024-03-23T02:52:10;3.40;99.90
10826;DHT22;5466;55.898;14.094;2024-03-23T02:54:10;3.30;99.90
10826;DHT22;5466;55.898;14.094;2024-03-23T02:56:11;3.20;99.90
10826;DHT22;5466;55.898;14.094;2024-03-23T02:58:16;3.10;99.90
10826;DHT22;5466;55.898;14.094;2024-03-23T03:00:16;3.10;99.90
10826;DHT22;5466;55.898;14.094;2024-03-23T03:02:17;3.10;99.90
10826;DHT22;5466;55.898;14.094;2024-03-23T03:04:18;3.00;99.90
10826;DHT22;5466;55.898;14.094;2024-03-23T03:06:25;2.90;99.90
10826;DHT22;5466;55.898;14.094;2024-03-23T03:08:26;2.90;99.90
10826;DHT22;5466;55.898;14.094;2024-03-23T03:10:27;2.80;99.90
10826;DHT22;5466;55.898;14.094;2024-03-23T03:12:27;2.70;99.90
10826;DHT22;5466;55.898;14.094;2024-03-23T03:14:28;2.50;99.90
10826;DHT22;5466;55.898;14.094;2024-03-23T03:16:28;2.50;99.90
10826;DHT22;5466;55.898;14.094;2024-03-23T03:18:29;2.60;99.90
10826;DHT22;5466;55.898;14.094;2024-03-23T03:20:30;2.70;99.90
10826;DHT22;5466;55.898;14.094;2024-03-23T03:22:32;2.70;99.90
10826;DHT22;5466;55.898;14.094;2024-03-23T03:24:32;2.70;99.90
10826;DHT22;5466;55.898;14.094;2024-03-23T03:26:33;2.70;99.90
10826;DHT22;5466;55.898;14.094;2024-03-23T03:28:33;2.70;99.90
10826;DHT22;5466;55.898;14.094;2024-03-23T03:30:35;2.70;99.90
10826;DHT22;5466;55.898;14.094;2024-03-23T03:32:35;2.70;99.90
10826;DHT22;5466;55.898;14.094;2024-03-23T03:34:36;2.70;99.90
10826;DHT22;5466;55.898;14.094;2024-03-23T03:36:37;2.60;99.90
10826;DHT22;5466;55.898;14.094;2024-03-23T03:38:37;2.60;99.90
10826;DHT22;5466;55.898;14.094;2024-03-23T03:40:42;2.60;99.90
10826;DHT22;5466;55.898;14.094;2024-03-23T03:42:42;2.50;99.90
10826;DHT22;5466;55.898;14.094;2024-03-23T03:44:43;2.50;99.90
10826;DHT22;5466;55.898;14.094;2024-03-23T03:46:43;2.40;99.90
10826;DHT22;5466;55.898;14.094;2024-03-23T03:48:44;2.40;99.90
10826;DHT22;5466;55.898;14.094;2024-03-23T03:50:46;2.50;99.90
10826;DHT22;5466;55.898;14.094;2024-03-23T03:52:47;2.40;99.90
10826;DHT22;5466;55.898;14.094;2024-03-23T03:54:47;2.20;99.90
10826;DHT22;5466;55.898;14.094;2024-03-23T03:56:48;2.10;99.90
10826;DHT22;5466;55.898;14.094;2024-03-23T03:58:49;2.00;99.90
10826;DHT22;5466;55.898;14.094;2024-03-23T04:00:49;1.90;99.90
10826;DHT22;5466;55.898;14.094;2024-03-23T04:02:50;1.90;99.90
10826;DHT22;5466;55.898;14.094;2024-03-23T04:04:51;1.90;99.90
10826;DHT22;5466;55.898;14.094;2024-03-23T04:07:02;2.00;99.90
10826;DHT22;5466;55.898;14.094;2024-03-23T04:09:02;2.10;99.90
10826;DHT22;5466;55.898;14.094;2024-03-23T04:11:03;2.10;99.90
10826;DHT22;5466;55.898;14.094;2024-03-23T04:13:04;2.20;99.90
10826;DHT22;5466;55.898;14.094;2024-03-23T04:15:05;2.40;99.90
10826;DHT22;5466;55.898;14.094;2024-03-23T04:17:06;2.30;99.90
10826;DHT22;5466;55.898;14.094;2024-03-23T04:19:07;2.30;99.90
10826;DHT22;5466;55.898;14.094;2024-03-23T04:21:08;2.30;99.90
10826;DHT22;5466;55.898;14.094;2024-03-23T04:23:09;2.20;99.90
10826;DHT22;5466;55.898;14.094;2024-03-23T04:25:10;2.20;99.90
10826;DHT22;5466;55.898;14.094;2024-03-23T04:27:10;2.30;99.90
10826;DHT22;5466;55.898;14.094;2024-03-23T04:29:11;2.40;99.90
10826;DHT22;5466;55.898;14.094;2024-03-23T04:31:12;2.50;99.90
10826;DHT22;5466;55.898;14.094;2024-03-23T04:33:13;2.60;99.90
10826;DHT22;5466;55.898;14.094;2024-03-23T04:35:14;2.80;99.90
10826;DHT22;5466;55.898;14.094;2024-03-23T04:37:14;3.00;99.90
10826;DHT22;5466;55.898;14.094;2024-03-23T04:39:16;3.00;99.90
10826;DHT22;5466;55.898;14.094;2024-03-23T04:41:17;3.10;99.90
10826;DHT22;5466;55.898;14.094;2024-03-23T04:43:18;3.10;99.90
10826;DHT22;5466;55.898;14.094;2024-03-23T04:45:19;3.10;99.90
10826;DHT22;5466;55.898;14.094;2024-03-23T04:47:20;3.10;99.90
10826;DHT22;5466;55.898;14.094;2024-03-23T04:49:20;3.00;99.90
10826;DHT22;5466;55.898;14.094;2024-03-23T04:51:22;3.10;99.90
10826;DHT22;5466;55.898;14.094;2024-03-23T04:53:24;3.10;99.90
10826;DHT22;5466;55.898;14.094;2024-03-23T04:55:28;3.10;99.90
10826;DHT22;5466;55.898;14.094;2024-03-23T04:57:29;3.00;99.90
10826;DHT22;5466;55.898;14.094;2024-03-23T04:59:30;3.00;99.90
10826;DHT22;5466;55.898;14.094;2024-03-23T05:01:33;3.10;99.90
10826;DHT22;5466;55.898;14.094;2024-03-23T05:03:34;3.20;99.90
10826;DHT22;5466;55.898;14.094;2024-03-23T05:05:34;3.20;99.90
10826;DHT22;5466;55.898;14.094;2024-03-23T05:07:35;3.20;99.90
10826;DHT22;5466;55.898;14.094;2024-03-23T05:09:35;3.20;99.90
10826;DHT22;5466;55.898;14.094;2024-03-23T05:11:36;3.10;99.90
10826;DHT22;5466;55.898;14.094;2024-03-23T05:13:37;3.00;99.90
10826;DHT22;5466;55.898;14.094;2024-03-23T05:15:37;3.00;99.90
10826;DHT22;5466;55.898;14.094;2024-03-23T05:17:38;3.10;99.90
10826;DHT22;5466;55.898;14.094;2024-03-23T05:19:39;3.20;99.90
10826;DHT22;5466;55.898;14.094;2024-03-23T05:21:40;3.30;99.90
10826;DHT22;5466;55.898;14.094;2024-03-23T05:23:40;3.30;99.90
10826;DHT22;5466;55.898;14.094;2024-03-23T05:25:41;3.40;99.90
10826;DHT22;5466;55.898;14.094;2024-03-23T05:27:42;3.40;99.90
10826;DHT22;5466;55.898;14.094;2024-03-23T05:29:42;3.50;99.90
10826;DHT22;5466;55.898;14.094;2024-03-23T05:31:43;3.50;99.90
10826;DHT22;5466;55.898;14.094;2024-03-23T05:33:43;3.60;99.90
10826;DHT22;5466;55.898;14.094;2024-03-23T05:35:44;3.70;99.90
10826;DHT22;5466;55.898;14.094;2024-03-23T05:37:44;3.80;99.90
10826;DHT22;5466;55.898;14.094;2024-03-23T05:39:45;3.90;99.90
10826;DHT22;5466;55.898;14.094;2024-03-23T05:41:48;4.00;99.90
10826;DHT22;5466;55.898;14.094;2024-03-23T05:43:49;4.10;99.90
10826;DHT22;5466;55.898;14.094;2024-03-23T05:45:56;4.20;99.90
10826;DHT22;5466;55.898;14.094;2024-03-23T05:47:57;4.30;99.90
10826;DHT22;5466;55.898;14.094;2024-03-23T05:49:57;4.40;99.90
10826;DHT22;5466;55.898;14.094;2024-03-23T05:51:58;4.40;99.90
10826;DHT22;5466;55.898;14.094;2024-03-23T05:53:58;4.40;99.90
10826;DHT22;5466;55.898;14.094;2024-03-23T05:56:03;4.50;99.90
10826;DHT22;5466;55.898;14.094;2024-03-23T05:58:04;4.50;99.90
10826;DHT22;5466;55.898;14.094;2024-03-23T06:00:05;4.50;99.90
10826;DHT22;5466;55.898;14.094;2024-03-23T06:02:10;4.50;99.90
10826;DHT22;5466;55.898;14.094;2024-03-23T06:04:11;4.60;99.90
10826;DHT22;5466;55.898;14.094;2024-03-23T06:06:13;4.60;99.90
10826;DHT22;5466;55.898;14.094;2024-03-23T06:08:13;4.70;99.90
10826;DHT22;5466;55.898;14.094;2024-03-23T06:10:15;4.80;99.90
10826;DHT22;5466;55.898;14.094;2024-03-23T06:12:16;4.80;99.90
10826;DHT22;5466;55.898;14.094;2024-03-23T06:14:17;4.80;99.90
10826;DHT22;5466;55.898;14.094;2024-03-23T06:16:17;4.80;99.90
10826;DHT22;5466;55.898;14.094;2024-03-23T06:18:23;4.80;99.90
10826;DHT22;5466;55.898;14.094;2024-03-23T06:20:25;4.80;99.90
10826;DHT22;5466;55.898;14.094;2024-03-23T06:22:27;4.90;99.90
10826;DHT22;5466;55.898;14.094;2024-03-23T06:24:27;5.00;99.90
10826;DHT22;5466;55.898;14.094;2024-03-23T06:26:28;5.10;99.90
10826;DHT22;5466;55.898;14.094;2024-03-23T06:28:28;5.20;99.90
10826;DHT22;5466;55.898;14.094;2024-03-23T06:30:29;5.30;99.90
10826;DHT22;5466;55.898;14.094;2024-03-23T06:32:29;5.40;99.90
10826;DHT22;5466;55.898;14.094;2024-03-23T06:34:30;5.60;99.90
10826;DHT22;5466;55.898;14.094;2024-03-23T06:36:31;5.60;99.90
10826;DHT22;5466;55.898;14.094;2024-03-23T06:38:32;5.60;99.90
10826;DHT22;5466;55.898;14.094;2024-03-23T06:40:32;5.60;99.90
10826;DHT22;5466;55.898;14.094;2024-03-23T06:42:33;5.40;99.90
10826;DHT22;5466;55.898;14.094;2024-03-23T06:44:34;5.30;99.90
10826;DHT22;5466;55.898;14.094;2024-03-23T06:46:34;5.30;99.90
10826;DHT22;5466;55.898;14.094;2024-03-23T06:48:35;5.40;99.90
10826;DHT22;5466;55.898;14.094;2024-03-23T06:50:35;5.40;99.90
10826;DHT22;5466;55.898;14.094;2024-03-23T06:52:36;5.50;99.90
10826;DHT22;5466;55.898;14.094;2024-03-23T06:54:36;5.60;99.90
10826;DHT22;5466;55.898;14.094;2024-03-23T06:56:37;5.60;99.90
10826;DHT22;5466;55.898;14.094;2024-03-23T06:58:37;5.70;99.90
10826;DHT22;5466;55.898;14.094;2024-03-23T07:00:38;5.70;99.90
10826;DHT22;5466;55.898;14.094;2024-03-23T07:02:40;5.90;99.90
10826;DHT22;5466;55.898;14.094;2024-03-23T07:04:41;6.20;99.90
10826;DHT22;5466;55.898;14.094;2024-03-23T07:06:45;6.40;99.90
10826;DHT22;5466;55.898;14.094;2024-03-23T07:08:46;6.60;99.90
10826;DHT22;5466;55.898;14.094;2024-03-23T07:10:47;6.80;99.90
10826;DHT22;5466;55.898;14.094;2024-03-23T07:12:47;7.00;99.90
10826;DHT22;5466;55.898;14.094;2024-03-23T07:14:48;7.00;99.90
10826;DHT22;5466;55.898;14.094;2024-03-23T07:16:49;7.00;99.90
10826;DHT22;5466;55.898;14.094;2024-03-23T07:18:50;6.80;99.90
10826;DHT22;5466;55.898;14.094;2024-03-23T07:20:54;6.60;99.90
10826;DHT22;5466;55.898;14.094;2024-03-23T07:22:56;6.50;99.90
10826;DHT22;5466;55.898;14.094;2024-03-23T07:25:00;6.40;99.90
10826;DHT22;5466;55.898;14.094;2024-03-23T07:27:01;6.60;99.90
10826;DHT22;5466;55.898;14.094;2024-03-23T07:29:05;6.90;99.90
10826;DHT22;5466;55.898;14.094;2024-03-23T07:31:09;6.90;99.90
10826;DHT22;5466;55.898;14.094;2024-03-23T07:33:10;7.00;99.90
10826;DHT22;5466;55.898;14.094;2024-03-23T07:35:10;7.10;99.90
10826;DHT22;5466;55.898;14.094;2024-03-23T07:37:11;7.50;99.90
10826;DHT22;5466;55.898;14.094;2024-03-23T07:39:12;7.80;99.90
10826;DHT22;5466;55.898;14.094;2024-03-23T07:41:19;7.60;99.90
10826;DHT22;5466;55.898;14.094;2024-03-23T07:43:20;7.50;99.90
10826;DHT22;5466;55.898;14.094;2024-03-23T07:45:21;7.50;99.90
10826;DHT22;5466;55.898;14.094;2024-03-23T07:47:21;7.30;99.90
10826;DHT22;5466;55.898;14.094;2024-03-23T07:49:23;7.20;99.90
10826;DHT22;5466;55.898;14.094;2024-03-23T07:51:25;7.30;99.90
10826;DHT22;5466;55.898;14.094;2024-03-23T07:53:26;7.30;99.90
10826;DHT22;5466;55.898;14.094;2024-03-23T07:55:26;7.40;99.90
10826;DHT22;5466;55.898;14.094;2024-03-23T07:57:27;7.70;99.90
10826;DHT22;5466;55.898;14.094;2024-03-23T07:59:27;8.00;99.90
10826;DHT22;5466;55.898;14.094;2024-03-23T08:01:31;8.00;99.90
10826;DHT22;5466;55.898;14.094;2024-03-23T08:03:32;7.90;99.90
10826;DHT22;5466;55.898;14.094;2024-03-23T08:05:32;7.70;99.90
10826;DHT22;5466;55.898;14.094;2024-03-23T08:07:34;7.50;99.90
10826;DHT22;5466;55.898;14.094;2024-03-23T08:09:35;7.40;99.90
10826;DHT22;5466;55.898;14.094;2024-03-23T08:11:36;7.40;99.90
10826;DHT22;5466;55.898;14.094;2024-03-23T08:13:41;7.40;99.90
10826;DHT22;5466;55.898;14.094;2024-03-23T08:15:42;7.30;99.90
10826;DHT22;5466;55.898;14.094;2024-03-23T08:17:42;7.10;99.90
10826;DHT22;5466;55.898;14.094;2024-03-23T08:19:43;7.00;99.90
10826;DHT22;5466;55.898;14.094;2024-03-23T08:21:43;7.10;99.90
10826;DHT22;5466;55.898;14.094;2024-03-23T08:23:44;7.10;99.90
10826;DHT22;5466;55.898;14.094;2024-03-23T08:25:45;7.20;99.90
10826;DHT22;5466;55.898;14.094;2024-03-23T08:27:45;7.30;99.90
10826;DHT22;5466;55.898;14.094;2024-03-23T08:29:46;7.40;99.90
10826;DHT22;5466;55.898;14.094;2024-03-23T08:31:46;7.60;99.90
10826;DHT22;5466;55.898;14.094;2024-03-23T08:33:47;7.90;99.90
10826;DHT22;5466;55.898;14.094;2024-03-23T08:35:59;8.00;99.90
10826;DHT22;5466;55.898;14.094;2024-03-23T08:38:00;7.90;99.90
10826;DHT22;5466;55.898;14.094;2024-03-23T08:40:01;8.00;99.90
10826;DHT22;5466;55.898;14.094;2024-03-23T08:42:02;8.20;99.90
10826;DHT22;5466;55.898;14.094;2024-03-23T08:44:03;8.50;99.90
10826;DHT22;5466;55.898;14.094;2024-03-23T08:46:08;8.90;99.90
10826;DHT22;5466;55.898;14.094;2024-03-23T08:48:09;9.20;99.90
10826;DHT22;5466;55.898;14.094;2024-03-23T08:50:09;9.20;99.90
10826;DHT22;5466;55.898;14.094;2024-03-23T08:52:10;9.20;99.90
10826;DHT22;5466;55.898;14.094;2024-03-23T08:54:10;9.10;99.90
10826;DHT22;5466;55.898;14.094;2024-03-23T08:56:11;9.30;99.90
10826;DHT22;5466;55.898;14.094;2024-03-23T08:58:12;9.50;99.90
10826;DHT22;5466;55.898;14.094;2024-03-23T09:00:14;9.60;99.90
10826;DHT22;5466;55.898;14.094;2024-03-23T09:02:15;9.60;99.90
10826;DHT22;5466;55.898;14.094;2024-03-23T09:04:15;9.40;99.90
10826;DHT22;5466;55.898;14.094;2024-03-23T09:06:16;9.40;99.90
10826;DHT22;5466;55.898;14.094;2024-03-23T09:08:18;9.40;99.90
10826;DHT22;5466;55.898;14.094;2024-03-23T09:10:18;9.40;99.90
10826;DHT22;5466;55.898;14.094;2024-03-23T09:12:19;9.60;99.90
10826;DHT22;5466;55.898;14.094;2024-03-23T09:14:22;9.60;99.90
10826;DHT22;5466;55.898;14.094;2024-03-23T09:16:22;9.70;99.90
10826;DHT22;5466;55.898;14.094;2024-03-23T09:18:23;9.70;99.90
10826;DHT22;5466;55.898;14.094;2024-03-23T09:20:24;9.80;99.90
10826;DHT22;5466;55.898;14.094;2024-03-23T09:22:25;9.80;99.90
10826;DHT22;5466;55.898;14.094;2024-03-23T09:24:25;10.00;99.90
10826;DHT22;5466;55.898;14.094;2024-03-23T09:26:26;9.90;99.90
10826;DHT22;5466;55.898;14.094;2024-03-23T09:28:26;9.70;99.90
10826;DHT22;5466;55.898;14.094;2024-03-23T09:30:27;9.70;99.90
10826;DHT22;5466;55.898;14.094;2024-03-23T09:32:28;9.90;99.90
10826;DHT22;5466;55.898;14.094;2024-03-23T09:34:28;10.10;99.90
10826;DHT22;5466;55.898;14.094;2024-03-23T09:36:29;10.00;99.90
10826;DHT22;5466;55.898;14.094;2024-03-23T09:38:30;9.50;99.90
10826;DHT22;5466;55.898;14.094;2024-03-23T09:40:31;9.20;99.90
10826;DHT22;5466;55.898;14.094;2024-03-23T09:42:32;8.80;99.90
10826;DHT22;5466;55.898;14.094;2024-03-23T09:44:32;8.50;99.90
10826;DHT22;5466;55.898;14.094;2024-03-23T09:46:33;8.50;99.90
10826;DHT22;5466;55.898;14.094;2024-03-23T09:48:36;8.50;99.90
10826;DHT22;5466;55.898;14.094;2024-03-23T09:50:41;8.50;99.90
10826;DHT22;5466;55.898;14.094;2024-03-23T09:52:41;8.60;99.90
10826;DHT22;5466;55.898;14.094;2024-03-23T09:54:42;8.70;99.90
10826;DHT22;5466;55.898;14.094;2024-03-23T09:56:43;8.60;99.90
10826;DHT22;5466;55.898;14.094;2024-03-23T09:58:43;8.70;99.90
10826;DHT22;5466;55.898;14.094;2024-03-23T10:00:44;8.80;99.90
10826;DHT22;5466;55.898;14.094;2024-03-23T10:02:45;9.30;99.90
10826;DHT22;5466;55.898;14.094;2024-03-23T10:04:46;10.00;99.90
10826;DHT22;5466;55.898;14.094;2024-03-23T10:06:46;10.30;99.90
10826;DHT22;5466;55.898;14.094;2024-03-23T10:08:47;10.30;99.90
10826;DHT22;5466;55.898;14.094;2024-03-23T10:10:47;10.60;99.90
10826;DHT22;5466;55.898;14.094;2024-03-23T10:12:49;11.00;99.90
10826;DHT22;5466;55.898;14.094;2024-03-23T10:14:53;11.20;99.90
10826;DHT22;5466;55.898;14.094;2024-03-23T10:16:53;11.30;99.90
10826;DHT22;5466;55.898;14.094;2024-03-23T10:18:55;11.50;99.90
10826;DHT22;5466;55.898;14.094;2024-03-23T10:21:11;11.80;99.90
10826;DHT22;5466;55.898;14.094;2024-03-23T10:23:18;11.90;99.90
10826;DHT22;5466;55.898;14.094;2024-03-23T10:25:23;12.10;99.90
10826;DHT22;5466;55.898;14.094;2024-03-23T10:27:24;12.20;99.90
10826;DHT22;5466;55.898;14.094;2024-03-23T10:29:25;11.70;99.90
10826;DHT22;5466;55.898;14.094;2024-03-23T10:31:28;11.50;99.90
10826;DHT22;5466;55.898;14.094;2024-03-23T10:33:29;11.90;99.90
10826;DHT22;5466;55.898;14.094;2024-03-23T10:35:31;12.10;99.90
10826;DHT22;5466;55.898;14.094;2024-03-23T10:37:32;12.60;99.90
10826;DHT22;5466;55.898;14.094;2024-03-23T10:39:33;12.80;99.90
10826;DHT22;5466;55.898;14.094;2024-03-23T10:41:35;13.20;99.90
10826;DHT22;5466;55.898;14.094;2024-03-23T10:43:37;13.70;99.90
10826;DHT22;5466;55.898;14.094;2024-03-23T10:45:38;13.90;99.90
10826;DHT22;5466;55.898;14.094;2024-03-23T10:47:38;13.60;99.90
10826;DHT22;5466;55.898;14.094;2024-03-23T10:49:39;13.80;99.90
10826;DHT22;5466;55.898;14.094;2024-03-23T10:51:40;13.80;99.90
10826;DHT22;5466;55.898;14.094;2024-03-23T10:53:40;13.90;99.90
10826;DHT22;5466;55.898;14.094;2024-03-23T10:55:41;14.00;99.90
10826;DHT22;5466;55.898;14.094;2024-03-23T10:57:45;13.80;99.90
10826;DHT22;5466;55.898;14.094;2024-03-23T10:59:48;13.90;99.90
10826;DHT22;5466;55.898;14.094;2024-03-23T11:02:00;13.80;99.90
10826;DHT22;5466;55.898;14.094;2024-03-23T11:04:03;13.80;99.90
10826;DHT22;5466;55.898;14.094;2024-03-23T11:06:05;14.20;99.90
10826;DHT22;5466;55.898;14.094;2024-03-23T11:08:06;14.10;99.90
10826;DHT22;5466;55.898;14.094;2024-03-23T11:10:28;14.10;99.90
10826;DHT22;5466;55.898;14.094;2024-03-23T11:12:33;14.30;99.90
10826;DHT22;5466;55.898;14.094;2024-03-23T11:14:33;14.60;99.70
10826;DHT22;5466;55.898;14.094;2024-03-23T11:16:34;14.30;99.90
10826;DHT22;5466;55.898;14.094;2024-03-23T11:18:36;14.30;99.90
10826;DHT22;5466;55.898;14.094;2024-03-23T11:20:37;14.00;99.90
10826;DHT22;5466;55.898;14.094;2024-03-23T11:24:38;12.60;99.90
10826;DHT22;5466;55.898;14.094;2024-03-23T11:26:39;11.90;99.90
10826;DHT22;5466;55.898;14.094;2024-03-23T11:28:39;11.60;99.90
10826;DHT22;5466;55.898;14.094;2024-03-23T11:30:40;11.40;99.90
10826;DHT22;5466;55.898;14.094;2024-03-23T11:32:42;11.40;99.90
10826;DHT22;5466;55.898;14.094;2024-03-23T11:34:42;11.70;99.90
10826;DHT22;5466;55.898;14.094;2024-03-23T11:36:44;12.00;99.90
10826;DHT22;5466;55.898;14.094;2024-03-23T11:38:44;12.60;99.90
10826;DHT22;5466;55.898;14.094;2024-03-23T11:40:49;12.50;99.90
10826;DHT22;5466;55.898;14.094;2024-03-23T11:42:56;12.10;99.90
10826;DHT22;5466;55.898;14.094;2024-03-23T11:44:56;11.90;99.90
10826;DHT22;5466;55.898;14.094;2024-03-23T11:47:08;11.60;99.90
10826;DHT22;5466;55.898;14.094;2024-03-23T11:49:29;11.60;99.90
10826;DHT22;5466;55.898;14.094;2024-03-23T11:51:29;11.40;99.90
10826;DHT22;5466;55.898;14.094;2024-03-23T11:53:35;11.20;99.90
10826;DHT22;5466;55.898;14.094;2024-03-23T11:55:41;11.00;99.90
10826;DHT22;5466;55.898;14.094;2024-03-23T11:57:42;10.80;99.90
10826;DHT22;5466;55.898;14.094;2024-03-23T11:59:43;10.70;99.90
10826;DHT22;5466;55.898;14.094;2024-03-23T12:01:44;10.70;99.90
10826;DHT22;5466;55.898;14.094;2024-03-23T12:03:45;10.60;99.90
10826;DHT22;5466;55.898;14.094;2024-03-23T12:05:50;10.50;99.90
10826;DHT22;5466;55.898;14.094;2024-03-23T12:07:53;10.60;99.90
10826;DHT22;5466;55.898;14.094;2024-03-23T12:10:04;11.10;99.90
10826;DHT22;5466;55.898;14.094;2024-03-23T12:12:14;11.90;99.90
10826;DHT22;5466;55.898;14.094;2024-03-23T12:14:18;12.60;99.90
10826;DHT22;5466;55.898;14.094;2024-03-23T12:16:24;12.60;99.90
10826;DHT22;5466;55.898;14.094;2024-03-23T12:18:27;12.30;99.90
10826;DHT22;5466;55.898;14.094;2024-03-23T12:20:28;12.00;99.90
10826;DHT22;5466;55.898;14.094;2024-03-23T12:22:29;11.70;99.90
10826;DHT22;5466;55.898;14.094;2024-03-23T12:24:33;11.90;99.90
10826;DHT22;5466;55.898;14.094;2024-03-23T12:26:36;12.50;99.90
10826;DHT22;5466;55.898;14.094;2024-03-23T12:28:39;13.10;99.90
10826;DHT22;5466;55.898;14.094;2024-03-23T12:30:40;13.20;99.90
10826;DHT22;5466;55.898;14.094;2024-03-23T12:32:40;13.40;99.90
10826;DHT22;5466;55.898;14.094;2024-03-23T12:34:41;13.60;99.90
10826;DHT22;5466;55.898;14.094;2024-03-23T12:36:42;13.50;99.90
10826;DHT22;5466;55.898;14.094;2024-03-23T12:38:42;13.10;99.90
10826;DHT22;5466;55.898;14.094;2024-03-23T12:40:48;12.60;99.90
10826;DHT22;5466;55.898;14.094;2024-03-23T12:42:49;12.40;99.90
10826;DHT22;5466;55.898;14.094;2024-03-23T12:44:50;12.00;99.90
10826;DHT22;5466;55.898;14.094;2024-03-23T12:46:51;11.60;99.90
10826;DHT22;5466;55.898;14.094;2024-03-23T12:48:51;11.70;99.90
10826;DHT22;5466;55.898;14.094;2024-03-23T12:50:54;11.60;99.90
10826;DHT22;5466;55.898;14.094;2024-03-23T12:52:55;11.50;99.90
10826;DHT22;5466;55.898;14.094;2024-03-23T12:54:56;11.50;99.90
10826;DHT22;5466;55.898;14.094;2024-03-23T12:56:57;11.40;99.90
10826;DHT22;5466;55.898;14.094;2024-03-23T12:58:57;11.20;99.90
10826;DHT22;5466;55.898;14.094;2024-03-23T13:00:58;11.00;99.90
10826;DHT22;5466;55.898;14.094;2024-03-23T13:02:59;10.80;99.90
10826;DHT22;5466;55.898;14.094;2024-03-23T13:04:59;10.90;99.90
10826;DHT22;5466;55.898;14.094;2024-03-23T13:07:00;11.10;99.90
10826;DHT22;5466;55.898;14.094;2024-03-23T13:09:01;11.60;99.90
10826;DHT22;5466;55.898;14.094;2024-03-23T13:11:02;12.10;99.90
10826;DHT22;5466;55.898;14.094;2024-03-23T13:13:03;12.20;99.90
10826;DHT22;5466;55.898;14.094;2024-03-23T13:15:04;11.90;99.90
10826;DHT22;5466;55.898;14.094;2024-03-23T13:17:06;11.80;99.90
10826;DHT22;5466;55.898;14.094;2024-03-23T13:19:06;11.90;99.90
10826;DHT22;5466;55.898;14.094;2024-03-23T13:21:07;12.30;99.90
10826;DHT22;5466;55.898;14.094;2024-03-23T13:23:08;12.30;99.90
10826;DHT22;5466;55.898;14.094;2024-03-23T13:25:09;12.40;99.90
10826;DHT22;5466;55.898;14.094;2024-03-23T13:27:09;12.40;99.90
10826;DHT22;5466;55.898;14.094;2024-03-23T13:29:11;12.40;99.90
10826;DHT22;5466;55.898;14.094;2024-03-23T13:31:11;12.60;99.90
10826;DHT22;5466;55.898;14.094;2024-03-23T13:33:12;12.70;99.90
10826;DHT22;5466;55.898;14.094;2024-03-23T13:35:13;12.60;99.90
10826;DHT22;5466;55.898;14.094;2024-03-23T13:37:14;12.40;99.90
10826;DHT22;5466;55.898;14.094;2024-03-23T13:39:15;12.50;99.90
10826;DHT22;5466;55.898;14.094;2024-03-23T13:41:16;12.70;99.90
10826;DHT22;5466;55.898;14.094;2024-03-23T13:43:16;12.70;99.90
10826;DHT22;5466;55.898;14.094;2024-03-23T13:45:17;13.00;99.90
10826;DHT22;5466;55.898;14.094;2024-03-23T13:47:17;13.40;99.90
10826;DHT22;5466;55.898;14.094;2024-03-23T13:49:29;13.80;99.90
10826;DHT22;5466;55.898;14.094;2024-03-23T13:51:31;13.60;99.90
10826;DHT22;5466;55.898;14.094;2024-03-23T13:53:32;13.30;99.90